sensor_id;sensor_type;location;lat;lon;timestamp;pressure;altitude;pressure_sealevel;temperature;humidity
37878;BME280;23715;53.652;8.516;2023-02-04T00:02:03;102981.30;;;7.42;100.00
37878;BME280;23715;53.652;8.516;2023-02-04T00:07:02;102993.00;;;7.51;100.00
37878;BME280;23715;53.652;8.516;2023-02-04T00:12:03;103003.95;;;7.79;100.00
37878;BME280;23715;53.652;8.516;2023-02-04T00:17:03;103009.31;;;7.79;100.00
37878;BME280;23715;53.652;8.516;2023-02-04T00:22:06;103025.17;;;7.61;100.00
37878;BME280;23715;53.652;8.516;2023-02-04T00:27:06;103024.45;;;7.68;100.00
37878;BME280;23715;53.652;8.516;2023-02-04T00:32:06;103041.11;;;7.53;100.00
37878;BME280;23715;53.652;8.516;2023-02-04T00:37:06;103046.77;;;7.69;100.00
37878;BME280;23715;53.652;8.516;2023-02-04T00:42:07;103060.55;;;7.70;100.00
37878;BME280;23715;53.652;8.516;2023-02-04T00:47:12;103066.28;;;7.72;100.00
37878;BME280;23715;53.652;8.516;2023-02-04T00:52:08;103069.83;;;7.73;100.00
37878;BME280;23715;53.652;8.516;2023-02-04T00:57:08;103089.83;;;7.62;100.00
37878;BME280;23715;53.652;8.516;2023-02-04T01:02:09;103096.14;;;7.61;100.00
37878;BME280;23715;53.652;8.516;2023-02-04T01:07:09;103102.49;;;7.59;100.00
37878;BME280;23715;53.652;8.516;2023-02-04T01:12:09;103119.00;;;7.58;100.00
37878;BME280;23715;53.652;8.516;2023-02-04T01:17:10;103125.35;;;7.56;100.00
37878;BME280;23715;53.652;8.516;2023-02-04T01:22:11;103127.69;;;7.53;100.00
37878;BME280;23715;53.652;8.516;2023-02-04T01:27:12;103151.70;;;7.55;100.00
37878;BME280;23715;53.652;8.516;2023-02-04T01:32:13;103156.75;;;7.39;100.00
37878;BME280;23715;53.652;8.516;2023-02-04T01:37:14;103188.86;;;6.59;100.00
37878;BME280;23715;53.652;8.516;2023-02-04T01:42:15;103196.50;;;6.98;100.00
37878;BME280;23715;53.652;8.516;2023-02-04T01:47:16;103201.34;;;7.00;100.00
37878;BME280;23715;53.652;8.516;2023-02-04T01:52:17;103201.34;;;7.00;100.00
37878;BME280;23715;53.652;8.516;2023-02-04T01:57:17;103219.72;;;7.11;100.00
37878;BME280;23715;53.652;8.516;2023-02-04T02:02:40;103232.80;;;7.20;100.00
37878;BME280;23715;53.652;8.516;2023-02-04T02:07:41;103241.59;;;7.10;100.00
37878;BME280;23715;53.652;8.516;2023-02-04T02:12:42;103274.20;;;6.95;100.00
37878;BME280;23715;53.652;8.516;2023-02-04T02:17:43;103284.75;;;6.99;100.00
37878;BME280;23715;53.652;8.516;2023-02-04T02:28:05;103309.78;;;6.37;100.00
37878;BME280;23715;53.652;8.516;2023-02-04T02:33:06;103321.59;;;6.14;100.00
37878;BME280;23715;53.652;8.516;2023-02-04T02:38:06;103342.55;;;5.96;100.00
37878;BME280;23715;53.652;8.516;2023-02-04T02:43:08;103352.25;;;6.17;100.00
37878;BME280;23715;53.652;8.516;2023-02-04T02:48:10;103350.48;;;6.16;100.00
37878;BME280;23715;53.652;8.516;2023-02-04T02:53:15;103329.07;;;6.05;100.00
37878;BME280;23715;53.652;8.516;2023-02-04T02:58:27;103329.07;;;5.83;100.00
37878;BME280;23715;53.652;8.516;2023-02-04T03:03:34;103348.14;;;5.50;100.00
37878;BME280;23715;53.652;8.516;2023-02-04T03:08:35;103336.55;;;5.68;100.00
37878;BME280;23715;53.652;8.516;2023-02-04T03:13:36;103339.02;;;5.40;100.00
37878;BME280;23715;53.652;8.516;2023-02-04T03:18:38;103333.38;;;5.71;100.00
37878;BME280;23715;53.652;8.516;2023-02-04T03:23:39;103352.77;;;5.79;100.00
37878;BME280;23715;53.652;8.516;2023-02-04T03:28:39;103368.81;;;5.59;100.00
37878;BME280;23715;53.652;8.516;2023-02-04T03:33:40;103366.73;;;5.54;100.00
37878;BME280;23715;53.652;8.516;2023-02-04T03:38:40;103385.76;;;5.58;100.00
37878;BME280;23715;53.652;8.516;2023-02-04T03:43:40;103385.76;;;5.58;100.00
37878;BME280;23715;53.652;8.516;2023-02-04T03:48:41;103401.98;;;5.67;100.00
37878;BME280;23715;53.652;8.516;2023-02-04T03:53:41;103411.14;;;5.75;100.00
37878;BME280;23715;53.652;8.516;2023-02-04T03:58:41;103419.40;;;5.83;100.00
37878;BME280;23715;53.652;8.516;2023-02-04T04:03:42;103422.56;;;5.81;100.00
37878;BME280;23715;53.652;8.516;2023-02-04T04:08:42;103444.30;;;5.66;100.00
37878;BME280;23715;53.652;8.516;2023-02-04T04:13:43;103444.06;;;5.77;100.00
37878;BME280;23715;53.652;8.516;2023-02-04T04:18:44;103461.46;;;4.93;100.00
37878;BME280;23715;53.652;8.516;2023-02-04T04:23:44;103497.09;;;4.15;100.00
37878;BME280;23715;53.652;8.516;2023-02-04T04:28:44;103497.09;;;4.15;100.00
37878;BME280;23715;53.652;8.516;2023-02-04T04:33:44;103518.95;;;4.35;100.00
37878;BME280;23715;53.652;8.516;2023-02-04T04:38:45;103527.41;;;4.59;100.00
37878;BME280;23715;53.652;8.516;2023-02-04T04:43:45;103528.91;;;4.99;100.00
37878;BME280;23715;53.652;8.516;2023-02-04T04:48:45;103533.69;;;4.82;100.00
37878;BME280;23715;53.652;8.516;2023-02-04T04:53:46;103542.67;;;4.76;100.00
37878;BME280;23715;53.652;8.516;2023-02-04T04:58:46;103571.38;;;4.33;100.00
37878;BME280;23715;53.652;8.516;2023-02-04T05:03:46;103570.16;;;4.27;100.00
37878;BME280;23715;53.652;8.516;2023-02-04T05:08:46;103580.59;;;4.12;100.00
37878;BME280;23715;53.652;8.516;2023-02-04T05:13:47;103577.27;;;4.54;100.00
37878;BME280;23715;53.652;8.516;2023-02-04T05:18:47;103593.05;;;4.39;100.00
37878;BME280;23715;53.652;8.516;2023-02-04T05:23:47;103587.48;;;4.53;100.00
37878;BME280;23715;53.652;8.516;2023-02-04T05:28:47;103593.91;;;4.94;100.00
37878;BME280;23715;53.652;8.516;2023-02-04T05:33:47;103591.82;;;4.60;100.00
37878;BME280;23715;53.652;8.516;2023-02-04T05:38:47;103598.97;;;4.58;100.00
37878;BME280;23715;53.652;8.516;2023-02-04T05:43:48;103601.25;;;4.79;100.00
37878;BME280;23715;53.652;8.516;2023-02-04T05:48:48;103613.62;;;4.83;100.00
37878;BME280;23715;53.652;8.516;2023-02-04T05:53:48;103623.13;;;4.45;100.00
37878;BME280;23715;53.652;8.516;2023-02-04T05:58:50;103628.53;;;4.42;100.00
37878;BME280;23715;53.652;8.516;2023-02-04T06:03:50;103635.36;;;4.59;100.00
37878;BME280;23715;53.652;8.516;2023-02-04T06:08:52;103640.28;;;4.58;100.00
37878;BME280;23715;53.652;8.516;2023-02-04T06:13:52;103644.77;;;4.54;100.00
37878;BME280;23715;53.652;8.516;2023-02-04T06:18:53;103648.80;;;4.22;100.00
37878;BME280;23715;53.652;8.516;2023-02-04T06:23:53;103658.92;;;3.96;100.00
37878;BME280;23715;53.652;8.516;2023-02-04T06:28:53;103664.05;;;4.09;100.00
37878;BME280;23715;53.652;8.516;2023-02-04T06:33:53;103677.84;;;4.07;100.00
37878;BME280;23715;53.652;8.516;2023-02-04T06:38:54;103685.81;;;3.76;100.00
37878;BME280;23715;53.652;8.516;2023-02-04T06:43:54;103700.28;;;3.88;100.00
37878;BME280;23715;53.652;8.516;2023-02-04T06:48:54;103703.34;;;3.92;100.00
37878;BME280;23715;53.652;8.516;2023-02-04T06:53:55;103713.59;;;4.23;100.00
37878;BME280;23715;53.652;8.516;2023-02-04T06:58:55;103718.89;;;4.26;100.00
37878;BME280;23715;53.652;8.516;2023-02-04T07:03:55;103719.29;;;4.28;100.00
37878;BME280;23715;53.652;8.516;2023-02-04T07:08:55;103722.03;;;4.24;100.00
37878;BME280;23715;53.652;8.516;2023-02-04T07:13:55;103733.58;;;4.23;100.00
37878;BME280;23715;53.652;8.516;2023-02-04T07:18:56;103734.59;;;3.76;100.00
37878;BME280;23715;53.652;8.516;2023-02-04T07:23:56;103734.02;;;3.87;100.00
37878;BME280;23715;53.652;8.516;2023-02-04T07:28:56;103740.41;;;4.09;100.00
37878;BME280;23715;53.652;8.516;2023-02-04T07:33:56;103748.19;;;3.91;100.00
37878;BME280;23715;53.652;8.516;2023-02-04T07:38:56;103760.80;;;3.26;100.00
37878;BME280;23715;53.652;8.516;2023-02-04T07:43:56;103769.22;;;3.73;100.00
37878;BME280;23715;53.652;8.516;2023-02-04T07:48:56;103779.39;;;3.77;100.00
37878;BME280;23715;53.652;8.516;2023-02-04T07:53:56;103789.49;;;3.38;100.00
37878;BME280;23715;53.652;8.516;2023-02-04T07:58:58;103802.50;;;3.23;100.00
37878;BME280;23715;53.652;8.516;2023-02-04T08:03:58;103803.19;;;3.43;100.00
37878;BME280;23715;53.652;8.516;2023-02-04T08:09:00;103813.22;;;3.64;100.00
37878;BME280;23715;53.652;8.516;2023-02-04T08:14:00;103824.33;;;3.62;100.00
37878;BME280;23715;53.652;8.516;2023-02-04T08:19:01;103825.41;;;3.91;100.00
37878;BME280;23715;53.652;8.516;2023-02-04T08:24:01;103833.18;;;4.47;100.00
37878;BME280;23715;53.652;8.516;2023-02-04T08:29:01;103843.50;;;4.75;100.00
37878;BME280;23715;53.652;8.516;2023-02-04T08:34:05;103854.36;;;4.60;100.00
37878;BME280;23715;53.652;8.516;2023-02-04T08:39:05;103856.33;;;4.80;100.00
37878;BME280;23715;53.652;8.516;2023-02-04T08:44:05;103867.13;;;5.03;100.00
37878;BME280;23715;53.652;8.516;2023-02-04T08:49:06;103871.50;;;5.08;100.00
37878;BME280;23715;53.652;8.516;2023-02-04T08:54:07;103875.99;;;5.05;100.00
37878;BME280;23715;53.652;8.516;2023-02-04T08:59:07;103894.80;;;4.94;100.00
37878;BME280;23715;53.652;8.516;2023-02-04T09:04:07;103884.39;;;5.07;100.00
37878;BME280;23715;53.652;8.516;2023-02-04T09:09:08;103880.37;;;5.39;100.00
37878;BME280;23715;53.652;8.516;2023-02-04T09:14:07;103893.26;;;5.40;100.00
37878;BME280;23715;53.652;8.516;2023-02-04T09:19:08;103904.55;;;5.57;100.00
37878;BME280;23715;53.652;8.516;2023-02-04T09:24:09;103903.81;;;5.75;100.00
37878;BME280;23715;53.652;8.516;2023-02-04T09:29:11;103897.06;;;5.81;100.00
37878;BME280;23715;53.652;8.516;2023-02-04T09:34:12;103906.65;;;5.93;100.00
37878;BME280;23715;53.652;8.516;2023-02-04T09:39:13;103896.98;;;5.84;100.00
37878;BME280;23715;53.652;8.516;2023-02-04T09:44:17;103900.52;;;5.86;100.00
37878;BME280;23715;53.652;8.516;2023-02-04T09:49:17;103901.50;;;5.80;100.00
37878;BME280;23715;53.652;8.516;2023-02-04T09:54:20;103918.76;;;5.88;100.00
37878;BME280;23715;53.652;8.516;2023-02-04T10:04:21;103929.85;;;6.16;100.00
37878;BME280;23715;53.652;8.516;2023-02-04T10:14:28;103946.90;;;6.81;100.00
37878;BME280;23715;53.652;8.516;2023-02-04T10:19:30;103937.07;;;7.03;100.00
37878;BME280;23715;53.652;8.516;2023-02-04T10:24:30;103931.67;;;7.26;100.00
37878;BME280;23715;53.652;8.516;2023-02-04T10:45:24;103908.84;;;7.37;100.00
37878;BME280;23715;53.652;8.516;2023-02-04T10:50:47;103908.92;;;7.81;100.00
37878;BME280;23715;53.652;8.516;2023-02-04T10:55:48;103908.92;;;7.81;100.00
37878;BME280;23715;53.652;8.516;2023-02-04T11:01:09;103908.09;;;7.79;100.00
37878;BME280;23715;53.652;8.516;2023-02-04T11:06:17;103904.91;;;7.81;100.00
37878;BME280;23715;53.652;8.516;2023-02-04T11:11:25;103904.06;;;7.79;100.00
37878;BME280;23715;53.652;8.516;2023-02-04T11:16:30;103904.73;;;7.87;100.00
37878;BME280;23715;53.652;8.516;2023-02-04T11:26:51;103890.59;;;8.16;100.00
37878;BME280;23715;53.652;8.516;2023-02-04T11:32:27;103894.09;;;8.02;100.00
37878;BME280;23715;53.652;8.516;2023-02-04T11:37:39;103906.31;;;7.96;100.00
37878;BME280;23715;53.652;8.516;2023-02-04T11:42:43;103899.48;;;8.35;100.00
37878;BME280;23715;53.652;8.516;2023-02-04T11:53:18;103899.95;;;8.51;100.00
37878;BME280;23715;53.652;8.516;2023-02-04T12:14:58;103889.30;;;8.31;100.00
37878;BME280;23715;53.652;8.516;2023-02-04T12:31:00;103888.61;;;8.23;100.00
37878;BME280;23715;53.652;8.516;2023-02-04T12:36:01;103895.36;;;8.38;100.00
37878;BME280;23715;53.652;8.516;2023-02-04T12:56:40;103924.89;;;8.71;100.00
37878;BME280;23715;53.652;8.516;2023-02-04T13:01:56;103918.29;;;8.66;100.00
37878;BME280;23715;53.652;8.516;2023-02-04T13:06:59;103911.95;;;8.69;100.00
37878;BME280;23715;53.652;8.516;2023-02-04T13:43:12;103915.59;;;8.83;100.00
37878;BME280;23715;53.652;8.516;2023-02-04T13:48:12;103921.23;;;8.57;100.00
37878;BME280;23715;53.652;8.516;2023-02-04T13:53:15;103931.05;;;8.58;100.00
37878;BME280;23715;53.652;8.516;2023-02-04T13:58:21;103927.43;;;8.59;100.00
37878;BME280;23715;53.652;8.516;2023-02-04T14:03:21;103924.09;;;8.51;100.00
37878;BME280;23715;53.652;8.516;2023-02-04T14:08:21;103932.98;;;8.53;100.00
37878;BME280;23715;53.652;8.516;2023-02-04T14:13:22;103936.38;;;8.59;100.00
37878;BME280;23715;53.652;8.516;2023-02-04T14:18:22;103923.52;;;8.56;100.00
37878;BME280;23715;53.652;8.516;2023-02-04T14:23:23;103927.21;;;8.52;100.00
37878;BME280;23715;53.652;8.516;2023-02-04T14:28:23;103932.94;;;8.36;100.00
37878;BME280;23715;53.652;8.516;2023-02-04T14:33:27;103933.45;;;8.18;100.00
37878;BME280;23715;53.652;8.516;2023-02-04T14:38:29;103938.02;;;8.14;100.00
37878;BME280;23715;53.652;8.516;2023-02-04T14:43:40;103937.94;;;7.99;100.00
37878;BME280;23715;53.652;8.516;2023-02-04T14:48:38;103938.34;;;8.00;100.00
37878;BME280;23715;53.652;8.516;2023-02-04T14:59:04;103944.24;;;8.15;100.00
37878;BME280;23715;53.652;8.516;2023-02-04T15:04:11;103944.67;;;7.98;100.00
37878;BME280;23715;53.652;8.516;2023-02-04T15:09:23;103956.53;;;7.70;100.00
37878;BME280;23715;53.652;8.516;2023-02-04T15:14:28;103951.70;;;7.66;100.00
37878;BME280;23715;53.652;8.516;2023-02-04T15:19:31;103955.31;;;7.65;100.00
37878;BME280;23715;53.652;8.516;2023-02-04T15:24:30;103952.70;;;7.62;100.00
37878;BME280;23715;53.652;8.516;2023-02-04T15:29:31;103948.18;;;7.64;100.00
37878;BME280;23715;53.652;8.516;2023-02-04T15:34:34;103948.65;;;7.63;100.00
37878;BME280;23715;53.652;8.516;2023-02-04T15:39:38;103954.47;;;7.63;100.00
37878;BME280;23715;53.652;8.516;2023-02-04T15:44:38;103965.28;;;7.58;100.00
37878;BME280;23715;53.652;8.516;2023-02-04T15:49:46;103942.64;;;7.72;100.00
37878;BME280;23715;53.652;8.516;2023-02-04T15:54:44;103945.69;;;7.56;100.00
37878;BME280;23715;53.652;8.516;2023-02-04T15:59:45;103946.71;;;7.51;100.00
37878;BME280;23715;53.652;8.516;2023-02-04T16:04:45;103939.64;;;7.48;100.00
37878;BME280;23715;53.652;8.516;2023-02-04T16:09:47;103948.30;;;7.59;100.00
37878;BME280;23715;53.652;8.516;2023-02-04T16:14:50;103962.90;;;7.46;100.00
37878;BME280;23715;53.652;8.516;2023-02-04T16:19:50;103969.94;;;7.31;100.00
37878;BME280;23715;53.652;8.516;2023-02-04T16:24:50;103969.30;;;7.19;100.00
37878;BME280;23715;53.652;8.516;2023-02-04T16:29:51;103978.25;;;7.17;100.00
37878;BME280;23715;53.652;8.516;2023-02-04T16:34:52;103983.01;;;7.04;100.00
37878;BME280;23715;53.652;8.516;2023-02-04T16:39:54;103987.61;;;6.96;100.00
37878;BME280;23715;53.652;8.516;2023-02-04T16:44:54;103993.45;;;6.94;100.00
37878;BME280;23715;53.652;8.516;2023-02-04T16:49:55;103988.59;;;6.69;100.00
37878;BME280;23715;53.652;8.516;2023-02-04T16:54:57;103986.88;;;6.65;100.00
37878;BME280;23715;53.652;8.516;2023-02-04T16:59:57;103992.55;;;6.72;100.00
37878;BME280;23715;53.652;8.516;2023-02-04T17:04:58;104000.86;;;6.57;100.00
37878;BME280;23715;53.652;8.516;2023-02-04T17:09:58;104004.11;;;6.49;100.00
37878;BME280;23715;53.652;8.516;2023-02-04T17:14:58;104007.62;;;6.28;100.00
37878;BME280;23715;53.652;8.516;2023-02-04T17:19:59;104010.86;;;6.20;100.00
37878;BME280;23715;53.652;8.516;2023-02-04T17:24:59;104013.60;;;5.86;100.00
37878;BME280;23715;53.652;8.516;2023-02-04T17:30:01;104006.08;;;5.83;100.00
37878;BME280;23715;53.652;8.516;2023-02-04T17:35:01;104009.71;;;5.79;100.00
37878;BME280;23715;53.652;8.516;2023-02-04T17:40:02;103998.94;;;5.53;100.00
37878;BME280;23715;53.652;8.516;2023-02-04T17:45:02;104022.19;;;5.46;100.00
37878;BME280;23715;53.652;8.516;2023-02-04T17:50:03;104001.86;;;5.35;100.00
37878;BME280;23715;53.652;8.516;2023-02-04T17:55:25;104004.81;;;5.13;100.00
37878;BME280;23715;53.652;8.516;2023-02-04T18:00:28;104011.55;;;5.08;100.00
37878;BME280;23715;53.652;8.516;2023-02-04T18:05:29;104024.08;;;5.00;100.00
37878;BME280;23715;53.652;8.516;2023-02-04T18:10:33;104014.83;;;4.93;100.00
37878;BME280;23715;53.652;8.516;2023-02-04T18:15:32;104028.35;;;4.74;100.00
37878;BME280;23715;53.652;8.516;2023-02-04T18:20:32;104038.23;;;4.63;100.00
37878;BME280;23715;53.652;8.516;2023-02-04T18:25:34;104030.83;;;4.52;100.00
37878;BME280;23715;53.652;8.516;2023-02-04T18:30:36;104036.77;;;4.33;100.00
37878;BME280;23715;53.652;8.516;2023-02-04T18:35:40;104040.17;;;4.47;100.00
37878;BME280;23715;53.652;8.516;2023-02-04T18:40:42;104039.45;;;4.28;100.00
37878;BME280;23715;53.652;8.516;2023-02-04T18:45:42;104043.86;;;4.30;100.00
37878;BME280;23715;53.652;8.516;2023-02-04T18:50:43;104043.86;;;4.30;100.00
37878;BME280;23715;53.652;8.516;2023-02-04T18:55:47;104042.84;;;4.45;100.00
37878;BME280;23715;53.652;8.516;2023-02-04T19:01:38;104042.05;;;4.37;100.00
37878;BME280;23715;53.652;8.516;2023-02-04T19:05:54;104043.50;;;4.22;100.00
37878;BME280;23715;53.652;8.516;2023-02-04T19:10:57;104041.38;;;4.09;100.00
37878;BME280;23715;53.652;8.516;2023-02-04T19:16:01;104032.05;;;4.10;100.00
37878;BME280;23715;53.652;8.516;2023-02-04T19:21:27;104032.63;;;3.93;100.00
37878;BME280;23715;53.652;8.516;2023-02-04T19:26:27;104032.68;;;3.84;100.00
37878;BME280;23715;53.652;8.516;2023-02-04T19:31:26;104041.22;;;3.65;100.00
37878;BME280;23715;53.652;8.516;2023-02-04T19:36:34;104030.44;;;3.85;100.00
37878;BME280;23715;53.652;8.516;2023-02-04T19:41:49;104028.75;;;3.71;100.00
37878;BME280;23715;53.652;8.516;2023-02-04T19:46:50;104026.02;;;3.84;100.00
37878;BME280;23715;53.652;8.516;2023-02-04T19:51:56;104021.98;;;3.90;100.00
37878;BME280;23715;53.652;8.516;2023-02-04T19:56:56;104012.08;;;4.09;100.00
37878;BME280;23715;53.652;8.516;2023-02-04T20:07:28;103998.94;;;3.87;100.00
37878;BME280;23715;53.652;8.516;2023-02-04T20:12:31;103998.64;;;3.63;100.00
37878;BME280;23715;53.652;8.516;2023-02-04T20:17:39;103992.49;;;3.57;100.00
37878;BME280;23715;53.652;8.516;2023-02-04T20:22:52;103995.16;;;3.49;100.00
37878;BME280;23715;53.652;8.516;2023-02-04T20:27:54;103992.50;;;3.52;100.00
37878;BME280;23715;53.652;8.516;2023-02-04T20:33:10;103989.37;;;3.56;100.00
37878;BME280;23715;53.652;8.516;2023-02-04T20:38:09;103999.20;;;3.41;100.00
37878;BME280;23715;53.652;8.516;2023-02-04T20:43:10;103992.95;;;3.50;100.00
37878;BME280;23715;53.652;8.516;2023-02-04T20:53:38;104005.25;;;3.68;100.00
37878;BME280;23715;53.652;8.516;2023-02-04T20:58:42;104004.72;;;3.85;100.00
37878;BME280;23715;53.652;8.516;2023-02-04T21:03:44;103997.50;;;4.00;100.00
37878;BME280;23715;53.652;8.516;2023-02-04T21:08:44;103981.92;;;4.05;100.00
37878;BME280;23715;53.652;8.516;2023-02-04T21:13:45;103977.64;;;3.84;100.00
37878;BME280;23715;53.652;8.516;2023-02-04T21:18:48;103983.96;;;3.68;100.00
37878;BME280;23715;53.652;8.516;2023-02-04T21:23:48;103982.77;;;3.48;100.00
37878;BME280;23715;53.652;8.516;2023-02-04T21:28:49;103985.34;;;3.63;100.00
37878;BME280;23715;53.652;8.516;2023-02-04T21:33:49;103981.80;;;3.64;100.00
37878;BME280;23715;53.652;8.516;2023-02-04T21:38:51;103970.12;;;3.79;100.00
37878;BME280;23715;53.652;8.516;2023-02-04T21:43:51;103969.05;;;4.08;100.00
37878;BME280;23715;53.652;8.516;2023-02-04T21:48:51;103951.42;;;3.90;100.00
37878;BME280;23715;53.652;8.516;2023-02-04T21:53:51;103944.81;;;3.85;100.00
37878;BME280;23715;53.652;8.516;2023-02-04T21:58:51;103964.31;;;3.89;100.00
37878;BME280;23715;53.652;8.516;2023-02-04T22:03:52;103972.19;;;4.01;100.00
37878;BME280;23715;53.652;8.516;2023-02-04T22:08:54;103963.27;;;4.08;100.00
37878;BME280;23715;53.652;8.516;2023-02-04T22:13:54;103955.14;;;4.22;100.00
37878;BME280;23715;53.652;8.516;2023-02-04T22:18:54;103949.95;;;4.07;100.00
37878;BME280;23715;53.652;8.516;2023-02-04T22:23:54;103949.88;;;4.15;100.00
37878;BME280;23715;53.652;8.516;2023-02-04T22:28:56;103950.02;;;3.98;100.00
37878;BME280;23715;53.652;8.516;2023-02-04T22:33:56;103943.28;;;4.08;100.00
37878;BME280;23715;53.652;8.516;2023-02-04T22:38:57;103943.28;;;4.10;100.00
37878;BME280;23715;53.652;8.516;2023-02-04T22:43:57;103943.28;;;4.10;100.00
37878;BME280;23715;53.652;8.516;2023-02-04T22:48:57;103945.43;;;4.15;100.00
37878;BME280;23715;53.652;8.516;2023-02-04T22:53:57;103933.80;;;4.25;100.00
37878;BME280;23715;53.652;8.516;2023-02-04T22:59:00;103935.64;;;4.17;100.00
37878;BME280;23715;53.652;8.516;2023-02-04T23:04:00;103936.24;;;4.01;100.00
37878;BME280;23715;53.652;8.516;2023-02-04T23:09:00;103920.20;;;4.07;100.00
37878;BME280;23715;53.652;8.516;2023-02-04T23:14:01;103908.81;;;3.91;100.00
37878;BME280;23715;53.652;8.516;2023-02-04T23:19:01;103915.92;;;3.91;100.00
37878;BME280;23715;53.652;8.516;2023-02-04T23:24:01;103917.35;;;3.77;100.00
37878;BME280;23715;53.652;8.516;2023-02-04T23:29:02;103922.27;;;3.75;100.00
37878;BME280;23715;53.652;8.516;2023-02-04T23:34:02;103914.28;;;3.75;100.00
37878;BME280;23715;53.652;8.516;2023-02-04T23:39:03;103908.81;;;3.93;100.00
37878;BME280;23715;53.652;8.516;2023-02-04T23:44:03;103910.14;;;3.93;100.00
37878;BME280;23715;53.652;8.516;2023-02-04T23:49:03;103887.84;;;4.02;100.00
37878;BME280;23715;53.652;8.516;2023-02-04T23:54:06;103880.87;;;3.87;100.00
37878;BME280;23715;53.652;8.516;2023-02-04T23:59:07;103868.88;;;3.91;100.00
